Time,TemperatureF,DewpointF,PressureIn,WindDirection,WindDirectionDegrees,WindSpeedMPH,WindSpeedGustMPH,Humidity,HourlyPrecipIn,Conditions,Clouds,dailyrainin,SoftwareType,DateUTC
2013-11-01 00:08:00,42.2,39.0,29.46,SW,223,10.0,19.0,88,0.00,,,0.10,weatherlink.com 1.10,2013-11-01 05:08:00,
2013-11-01 00:23:00,42.2,39.0,29.47,West,273,10.0,20.0,88,0.00,,,0.10,weatherlink.com 1.10,2013-11-01 05:23:00,
2013-11-01 00:38:00,42.3,39.0,29.47,West,260,8.0,15.0,88,0.00,,,0.10,weatherlink.com 1.10,2013-11-01 05:38:00,
2013-11-01 00:53:00,42.2,39.0,29.48,West,265,9.0,15.0,87,0.00,,,0.10,weatherlink.com 1.10,2013-11-01 05:53:00,
2013-11-01 01:08:00,42.1,39.0,29.48,West,269,7.0,20.0,88,0.00,,,0.10,weatherlink.com 1.10,2013-11-01 06:08:00,
2013-11-01 01:23:00,42.1,39.0,29.48,WSW,238,4.0,11.0,88,0.00,,,0.10,weatherlink.com 1.10,2013-11-01 06:23:00,
2013-11-01 01:38:00,42.2,39.0,29.48,WNW,288,6.0,10.0,87,0.00,,,0.00,weatherlink.com 1.10,2013-11-01 06:38:00,
2013-11-01 01:54:00,42.3,39.0,29.48,WSW,237,5.0,9.0,87,0.00,,,0.00,weatherlink.com 1.10,2013-11-01 06:54:00,
2013-11-01 02:09:00,42.3,39.0,29.49,WSW,258,7.0,11.0,87,0.00,,,0.00,weatherlink.com 1.10,2013-11-01 07:09:00,
2013-11-01 02:24:00,42.2,39.0,29.49,WSW,258,0.0,11.0,87,0.00,,,0.00,weatherlink.com 1.10,2013-11-01 07:24:00,
2013-11-01 02:39:00,42.3,39.0,29.50,West,268,8.0,12.0,87,0.00,,,0.00,weatherlink.com 1.10,2013-11-01 07:39:00,
2013-11-01 02:54:00,42.3,39.0,29.50,West,271,7.0,16.0,87,0.00,,,0.00,weatherlink.com 1.10,2013-11-01 07:54:00,
2013-11-01 03:09:00,42.3,39.0,29.51,WSW,238,6.0,15.0,87,0.00,,,0.00,weatherlink.com 1.10,2013-11-01 08:09:00,
2013-11-01 03:24:00,42.3,39.0,29.50,WSW,249,8.0,14.0,87,0.00,,,0.00,weatherlink.com 1.10,2013-11-01 08:24:00,
2013-11-01 03:39:00,42.3,39.0,29.51,SSW,211,5.0,13.0,88,0.00,,,0.00,weatherlink.com 1.10,2013-11-01 08:39:00,
2013-11-01 03:54:00,42.3,39.0,29.51,WSW,254,11.0,12.0,89,0.00,,,0.00,weatherlink.com 1.10,2013-11-01 08:54:00,
2013-11-01 04:09:00,42.2,39.0,29.52,SW,234,7.0,13.0,89,0.00,,,0.00,weatherlink.com 1.10,2013-11-01 09:09:00,
2013-11-01 04:24:00,42.2,39.0,29.52,WSW,244,6.0,13.0,89,0.00,,,0.00,weatherlink.com 1.10,2013-11-01 09:24:00,
2013-11-01 04:54:00,42.3,40.0,29.54,WSW,258,9.0,14.0,90,0.00,,,0.00,weatherlink.com 1.10,2013-11-01 09:54:00,
2013-11-01 05:09:00,42.3,40.0,29.55,WNW,284,5.0,12.0,90,0.00,,,0.00,weatherlink.com 1.10,2013-11-01 10:09:00,
2013-11-01 05:24:00,42.4,40.0,29.55,WSW,257,5.0,11.0,90,0.00,,,0.00,weatherlink.com 1.10,2013-11-01 10:24:00,
2013-11-01 05:39:00,42.4,40.0,29.56,West,276,4.0,8.0,90,0.00,,,0.00,weatherlink.com 1.10,2013-11-01 10:39:00,
2013-11-01 05:54:00,42.5,40.0,29.57,WSW,246,0.0,9.0,91,0.00,,,0.00,weatherlink.com 1.10,2013-11-01 10:54:00,
2013-11-01 06:09:00,42.5,40.0,29.57,West,263,7.0,7.0,92,0.00,,,0.00,weatherlink.com 1.10,2013-11-01 11:09:00,
2013-11-01 06:24:00,42.7,40.0,29.58,WSW,252,4.0,8.0,91,0.00,,,0.00,weatherlink.com 1.10,2013-11-01 11:24:00,
2013-11-01 06:39:00,42.9,41.0,29.59,WSW,247,4.0,12.0,91,0.00,,,0.00,weatherlink.com 1.10,2013-11-01 11:39:00,
2013-11-01 06:54:00,42.9,40.0,29.59,West,277,7.0,12.0,90,0.00,,,0.00,weatherlink.com 1.10,2013-11-01 11:54:00,
2013-11-01 07:09:00,43.0,40.0,29.59,West,271,11.0,13.0,90,0.00,,,0.00,weatherlink.com 1.10,2013-11-01 12:09:00,
2013-11-01 07:24:00,43.1,40.0,29.60,West,273,8.0,12.0,89,0.00,,,0.00,weatherlink.com 1.10,2013-11-01 12:24:00,
2013-11-01 07:39:00,43.2,40.0,29.60,West,271,0.0,13.0,89,0.00,,,0.00,weatherlink.com 1.10,2013-11-01 12:39:00,
2013-11-01 07:54:00,43.3,40.0,29.60,West,259,9.0,12.0,89,0.00,,,0.00,weatherlink.com 1.10,2013-11-01 12:54:00,
2013-11-01 08:09:00,43.4,40.0,29.62,West,263,4.0,9.0,89,0.00,,,0.00,weatherlink.com 1.10,2013-11-01 13:09:00,
2013-11-01 08:24:00,43.4,40.0,29.63,WNW,284,7.0,15.0,88,0.00,,,0.00,weatherlink.com 1.10,2013-11-01 13:24:00,
2013-11-01 08:39:00,43.5,40.0,29.63,West,261,5.0,8.0,88,0.00,,,0.00,weatherlink.com 1.10,2013-11-01 13:39:00,
2013-11-01 08:54:00,43.5,41.0,29.64,West,263,0.0,7.0,89,0.00,,,0.00,weatherlink.com 1.10,2013-11-01 13:54:00,
2013-11-01 09:09:00,43.6,40.0,29.65,West,265,3.0,9.0,88,0.00,,,0.00,weatherlink.com 1.10,2013-11-01 14:09:00,
2013-11-01 09:24:00,43.8,41.0,29.65,West,266,5.0,7.0,88,0.00,,,0.00,weatherlink.com 1.10,2013-11-01 14:24:00,
2013-11-01 09:39:00,44.0,40.0,29.65,West,263,0.0,8.0,87,0.00,,,0.00,weatherlink.com 1.10,2013-11-01 14:39:00,
2013-11-01 09:54:00,44.5,41.0,29.65,WSW,249,7.0,9.0,87,0.00,,,0.00,weatherlink.com 1.10,2013-11-01 14:54:00,
2013-11-01 10:10:00,45.1,41.0,29.65,West,263,0.0,8.0,85,0.00,,,0.00,weatherlink.com 1.10,2013-11-01 15:10:00,
2013-11-01 10:25:00,45.4,41.0,29.66,West,265,4.0,8.0,83,0.00,,,0.00,weatherlink.com 1.10,2013-11-01 15:25:00,
2013-11-01 10:40:00,45.8,41.0,29.66,West,276,6.0,10.0,82,0.00,,,0.00,weatherlink.com 1.10,2013-11-01 15:40:00,
2013-11-01 10:55:00,46.1,41.0,29.66,West,271,6.0,8.0,81,0.00,,,0.00,weatherlink.com 1.10,2013-11-01 15:55:00,
2013-11-01 11:10:00,46.1,41.0,29.67,West,275,6.0,8.0,81,0.00,,,0.00,weatherlink.com 1.10,2013-11-01 16:10:00,
2013-11-01 11:25:00,46.4,41.0,29.67,WSW,248,2.0,9.0,81,0.00,,,0.00,weatherlink.com 1.10,2013-11-01 16:25:00,
2013-11-01 11:40:00,46.6,41.0,29.68,WSW,250,4.0,9.0,81,0.00,,,0.00,weatherlink.com 1.10,2013-11-01 16:40:00,
2013-11-01 11:55:00,46.9,41.0,29.68,WSW,254,7.0,11.0,79,0.00,,,0.00,weatherlink.com 1.10,2013-11-01 16:55:00,
2013-11-01 12:10:00,46.7,41.0,29.69,West,259,4.0,11.0,80,0.00,,,0.00,weatherlink.com 1.10,2013-11-01 17:10:00,
2013-11-01 12:25:00,46.9,41.0,29.69,West,269,6.0,10.0,79,0.00,,,0.00,weatherlink.com 1.10,2013-11-01 17:25:00,
2013-11-01 12:40:00,46.8,41.0,29.69,WSW,239,8.0,11.0,79,0.00,,,0.00,weatherlink.com 1.10,2013-11-01 17:40:00,
2013-11-01 12:55:00,47.1,41.0,29.69,WSW,241,6.0,9.0,78,0.00,,,0.00,weatherlink.com 1.10,2013-11-01 17:55:00,
2013-11-01 13:25:00,47.2,41.0,29.69,West,264,0.0,9.0,79,0.00,,,0.00,weatherlink.com 1.10,2013-11-01 18:25:00,
2013-11-01 13:40:00,48.0,41.0,29.70,West,261,0.0,10.0,76,0.00,,,0.00,weatherlink.com 1.10,2013-11-01 18:40:00,
2013-11-01 13:55:00,47.9,41.0,29.70,WSW,238,0.0,11.0,76,0.00,,,0.00,weatherlink.com 1.10,2013-11-01 18:55:00,
2013-11-01 14:10:00,47.9,40.0,29.70,West,263,10.0,19.0,75,0.00,,,0.00,weatherlink.com 1.10,2013-11-01 19:10:00,
2013-11-01 14:25:00,48.3,40.0,29.70,WSW,252,10.0,13.0,72,0.00,,,0.00,weatherlink.com 1.10,2013-11-01 19:25:00,
2013-11-01 14:40:00,48.0,39.0,29.71,West,280,8.0,15.0,71,0.00,,,0.00,weatherlink.com 1.10,2013-11-01 19:40:00,
2013-11-01 14:55:00,48.5,39.0,29.71,West,265,8.0,11.0,70,0.00,,,0.00,weatherlink.com 1.10,2013-11-01 19:55:00,
2013-11-01 15:10:00,48.8,39.0,29.72,West,267,5.0,9.0,70,0.00,,,0.00,weatherlink.com 1.10,2013-11-01 20:10:00,
2013-11-01 15:25:00,48.9,39.0,29.72,WSW,244,1.0,12.0,70,0.00,,,0.00,weatherlink.com 1.10,2013-11-01 20:25:00,
2013-11-01 15:40:00,49.7,39.0,29.73,WNW,303,6.0,8.0,68,0.00,,,0.00,weatherlink.com 1.10,2013-11-01 20:40:00,
2013-11-01 15:55:00,49.0,40.0,29.73,NW,313,5.0,11.0,70,0.00,,,0.00,weatherlink.com 1.10,2013-11-01 20:55:00,
2013-11-01 16:10:00,48.6,40.0,29.74,WNW,302,8.0,11.0,72,0.00,,,0.00,weatherlink.com 1.10,2013-11-01 21:10:00,
2013-11-01 16:25:00,48.8,40.0,29.74,NW,318,2.0,9.0,72,0.00,,,0.00,weatherlink.com 1.10,2013-11-01 21:25:00,
2013-11-01 16:40:00,49.2,40.0,29.74,NNW,329,2.0,9.0,71,0.00,,,0.00,weatherlink.com 1.10,2013-11-01 21:40:00,
2013-11-01 16:55:00,49.4,39.0,29.75,NW,319,5.0,10.0,68,0.00,,,0.00,weatherlink.com 1.10,2013-11-01 21:55:00,
2013-11-01 17:10:00,48.9,39.0,29.75,NW,319,5.0,11.0,69,0.00,,,0.00,weatherlink.com 1.10,2013-11-01 22:10:00,
2013-11-01 17:25:00,48.9,39.0,29.76,NW,315,4.0,10.0,70,0.00,,,0.00,weatherlink.com 1.10,2013-11-01 22:25:00,
2013-11-01 17:40:00,48.7,40.0,29.77,NW,317,1.0,7.0,71,0.00,,,0.00,weatherlink.com 1.10,2013-11-01 22:40:00,
2013-11-01 17:55:00,48.4,39.0,29.77,NW,318,0.0,5.0,71,0.00,,,0.00,weatherlink.com 1.10,2013-11-01 22:55:00,
2013-11-01 18:10:00,48.2,39.0,29.78,NW,313,5.0,7.0,71,0.00,,,0.00,weatherlink.com 1.10,2013-11-01 23:10:00,
2013-11-01 18:25:00,47.9,39.0,29.79,NNW,328,11.0,11.0,72,0.00,,,0.00,weatherlink.com 1.10,2013-11-01 23:25:00,
2013-11-01 18:41:00,47.1,39.0,29.80,NNW,342,7.0,10.0,73,0.00,,,0.00,weatherlink.com 1.10,2013-11-01 23:41:00,
2013-11-01 18:56:00,46.5,39.0,29.80,NNW,333,6.0,8.0,75,0.00,,,0.00,weatherlink.com 1.10,2013-11-01 23:56:00,
2013-11-01 19:11:00,46.1,39.0,29.81,NNW,335,0.0,2.0,76,0.00,,,0.00,weatherlink.com 1.10,2013-11-02 00:11:00,
2013-11-01 19:26:00,45.4,39.0,29.82,NNW,335,5.0,9.0,78,0.00,,,0.00,weatherlink.com 1.10,2013-11-02 00:26:00,
2013-11-01 19:41:00,44.7,39.0,29.82,NNW,346,6.0,8.0,79,0.00,,,0.00,weatherlink.com 1.10,2013-11-02 00:41:00,
2013-11-01 19:56:00,44.4,38.0,29.82,NNW,346,0.0,5.0,79,0.00,,,0.00,weatherlink.com 1.10,2013-11-02 00:56:00,
2013-11-01 20:11:00,44.1,38.0,29.82,NNW,346,2.0,7.0,79,0.00,,,0.00,weatherlink.com 1.10,2013-11-02 01:11:00,
2013-11-01 20:26:00,44.0,38.0,29.82,NNW,346,0.0,1.0,80,0.00,,,0.00,weatherlink.com 1.10,2013-11-02 01:26:00,
2013-11-01 20:41:00,44.0,38.0,29.82,NNW,346,0.0,1.0,80,0.00,,,0.00,weatherlink.com 1.10,2013-11-02 01:41:00,
2013-11-01 20:56:00,43.8,38.0,29.83,NNW,346,0.0,0.0,81,0.00,,,0.00,weatherlink.com 1.10,2013-11-02 01:56:00,
2013-11-01 21:11:00,43.6,38.0,29.83,NNW,346,0.0,0.0,81,0.00,,,0.00,weatherlink.com 1.10,2013-11-02 02:11:00,
2013-11-01 21:26:00,43.5,38.0,29.83,NNW,346,0.0,0.0,82,0.00,,,0.00,weatherlink.com 1.10,2013-11-02 02:26:00,
2013-11-01 21:41:00,43.3,39.0,29.84,NNW,346,0.0,0.0,84,0.00,,,0.00,weatherlink.com 1.10,2013-11-02 02:41:00,
2013-11-01 21:56:00,43.1,39.0,29.85,NNW,346,0.0,0.0,84,0.00,,,0.00,weatherlink.com 1.10,2013-11-02 02:56:00,
2013-11-01 22:11:00,42.9,39.0,29.86,NNW,346,0.0,0.0,85,0.00,,,0.00,weatherlink.com 1.10,2013-11-02 03:11:00,
2013-11-01 22:26:00,42.5,38.0,29.87,NNW,346,0.0,0.0,85,0.00,,,0.00,weatherlink.com 1.10,2013-11-02 03:26:00,
2013-11-01 22:41:00,42.5,39.0,29.88,NNW,343,3.0,11.0,86,0.00,,,0.00,weatherlink.com 1.10,2013-11-02 03:41:00,
2013-11-01 22:56:00,42.5,39.0,29.88,NNW,341,5.0,14.0,86,0.00,,,0.00,weatherlink.com 1.10,2013-11-02 03:56:00,
2013-11-01 23:11:00,42.5,38.0,29.88,NW,319,7.0,11.0,85,0.00,,,0.00,weatherlink.com 1.10,2013-11-02 04:11:00,
2013-11-01 23:26:00,42.3,38.0,29.89,NW,313,6.0,18.0,83,0.00,,,0.00,weatherlink.com 1.10,2013-11-02 04:26:00,
2013-11-01 23:41:00,42.2,37.0,29.89,North,360,7.0,18.0,81,0.00,,,0.00,weatherlink.com 1.10,2013-11-02 04:41:00,
2013-11-01 23:56:00,42.0,36.0,29.89,WNW,294,12.0,16.0,79,0.00,,,0.00,weatherlink.com 1.10,2013-11-02 04:56:00,